Time;durP1;ratioP1;P1;durP2;ratioP2;P2;SDS_P1;SDS_P2;PMS_P1;PMS_P2;Temp;Humidity;BMP_temperature;BMP_pressure;BME280_temperature;BME280_humidity;BME280_pressure;Samples;Min_cycle;Max_cycle;Signal;HPM_P1;HPM_P2
2022/06/18 00:01:01;;;;;;;4.70;2.35;;;;;;;15.37;100.00;98881.37;1734931;80;28163;-83
2022/06/18 00:03:27;;;;;;;5.08;3.05;;;;;;;15.37;100.00;98885.33;1740846;80;28489;-84
2022/06/18 00:05:56;;;;;;;6.35;3.05;;;;;;;15.37;100.00;98881.37;1734091;80;28084;-87
2022/06/18 00:08:29;;;;;;;4.33;2.92;;;;;;;15.36;100.00;98884.97;1738688;80;28077;-87
2022/06/18 00:13:39;;;;;;;4.80;2.77;;;;;;;15.33;100.00;98886.52;1735294;80;28081;-84
2022/06/18 00:13:40;;;;;;;5.12;2.65;;;;;;;15.28;100.00;98887.86;1731879;80;28075;-84
2022/06/18 00:16:11;;;;;;;3.58;2.47;;;;;;;15.24;100.00;98888.61;1743111;80;28144;-84
2022/06/18 00:18:38;;;;;;;3.05;2.47;;;;;;;15.23;100.00;98885.61;1734389;80;27992;-84
2022/06/18 00:21:06;;;;;;;3.37;2.70;;;;;;;15.24;100.00;98892.56;1735146;80;28126;-88
2022/06/18 00:23:33;;;;;;;3.27;2.40;;;;;;;15.24;100.00;98889.92;1737618;80;28109;-84
2022/06/18 00:25:59;;;;;;;3.72;2.62;;;;;;;15.27;100.00;98884.41;1715489;81;28184;-87
2022/06/18 00:28:30;;;;;;;4.87;3.40;;;;;;;15.26;100.00;98889.33;1718255;81;28441;-84
2022/06/18 00:30:57;;;;;;;4.10;3.10;;;;;;;15.24;100.00;98889.92;1720741;81;33687;-83
2022/06/18 00:33:24;;;;;;;6.35;3.02;;;;;;;15.19;100.00;98892.09;1729345;81;28441;-84
2022/06/18 00:35:56;;;;;;;6.08;2.75;;;;;;;15.14;100.00;98888.16;1725816;81;28055;-84
2022/06/18 00:38:44;;;;;;;3.62;2.47;;;;;;;15.12;100.00;98885.64;1718815;81;28094;-83
2022/06/18 00:41:13;;;;;;;4.50;2.60;;;;;;;15.12;100.00;98881.69;1674420;83;28137;-88
2022/06/18 00:43:43;;;;;;;3.33;2.25;;;;;;;15.07;100.00;98881.22;1682553;84;28578;-84
2022/06/18 00:46:28;;;;;;;4.00;2.72;;;;;;;15.07;100.00;98885.17;1680956;83;28017;-84
2022/06/18 00:49:18;;;;;;;4.35;2.80;;;;;;;15.06;100.00;98883.50;1685192;83;28105;-84
2022/06/18 00:51:47;;;;;;;5.90;2.70;;;;;;;15.05;100.00;98889.76;1668444;84;28162;-84
2022/06/18 00:54:20;;;;;;;3.83;2.60;;;;;;;15.00;100.00;98884.02;1688353;84;28182;-85
2022/06/18 00:57:16;;;;;;;4.53;2.70;;;;;;;14.95;100.00;98882.20;1682156;82;28361;-84
2022/06/18 00:59:48;;;;;;;4.97;2.70;;;;;;;14.95;100.00;98882.20;1687004;84;28119;-87
2022/06/18 01:02:21;;;;;;;4.37;2.40;;;;;;;14.94;100.00;98875.29;1658722;84;28282;-83
2022/06/18 01:04:48;;;;;;;3.85;2.62;;;;;;;14.92;100.00;98878.52;1642719;85;28038;-83
2022/06/18 01:07:32;;;;;;;5.00;2.62;;;;;;;14.90;100.00;98879.11;1654526;85;28152;-83
2022/06/18 01:10:00;;;;;;;4.22;2.60;;;;;;;14.86;100.00;98885.11;1670113;84;28052;-84
2022/06/18 01:12:28;;;;;;;4.00;2.60;;;;;;;14.85;100.00;98874.69;1729537;81;28077;-83
2022/06/18 01:15:00;;;;;;;4.80;2.60;;;;;;;14.85;100.00;98872.05;1722548;81;28073;-83
2022/06/18 01:17:29;;;;;;;5.72;2.60;;;;;;;14.84;100.00;98870.38;1719349;81;28185;-83
2022/06/18 01:19:56;;;;;;;4.05;2.72;;;;;;;14.81;100.00;98874.11;1724826;81;28070;-84
2022/06/18 01:22:44;;;;;;;3.27;2.75;;;;;;;14.79;100.00;98865.95;1719700;81;28465;-87
2022/06/18 01:25:11;;;;;;;5.95;2.50;;;;;;;14.76;100.00;98867.05;1733595;80;28088;-83
2022/06/18 01:27:38;;;;;;;4.42;3.05;;;;;;;14.73;100.00;98867.28;1741595;80;28094;-83
2022/06/18 01:30:14;;;;;;;3.98;2.45;;;;;;;14.72;100.00;98866.11;1741630;80;28181;-84
2022/06/18 01:32:42;;;;;;;5.00;2.77;;;;;;;14.73;100.00;98863.84;1737248;80;28084;-83
2022/06/18 01:35:11;;;;;;;3.67;2.20;;;;;;;14.70;100.00;98862.27;1731493;80;27998;-83
2022/06/18 01:37:38;;;;;;;2.60;1.92;;;;;;;14.67;100.00;98857.73;1738027;80;28081;-84
2022/06/18 01:40:06;;;;;;;5.00;2.80;;;;;;;14.70;100.00;98857.48;1738125;80;28139;-84
2022/06/18 01:42:38;;;;;;;4.28;2.33;;;;;;;14.72;100.00;98855.57;1741473;80;28128;-83
2022/06/18 01:45:08;;;;;;;3.95;2.52;;;;;;;14.73;100.00;98854.11;1712676;81;28141;-83
2022/06/18 01:47:58;;;;;;;3.75;2.55;;;;;;;14.71;100.00;98853.89;1745403;80;28081;-84
2022/06/18 01:50:31;;;;;;;6.70;2.60;;;;;;;14.69;100.00;98851.84;1743410;80;28051;-84
2022/06/18 01:53:04;;;;;;;2.55;2.02;;;;;;;14.69;100.00;98849.21;1745164;80;28162;-84
2022/06/18 01:55:37;;;;;;;2.70;2.27;;;;;;;14.65;100.00;98845.52;1741425;80;28133;-87
2022/06/18 01:58:07;;;;;;;3.47;2.90;;;;;;;14.64;100.00;98837.73;1738727;80;28149;-88
2022/06/18 02:00:33;;;;;;;2.47;1.98;;;;;;;14.56;100.00;98839.64;1738111;80;28137;-83
2022/06/18 02:03:03;;;;;;;2.40;2.20;;;;;;;14.53;100.00;98840.38;1739985;80;28079;-83
2022/06/18 02:05:32;;;;;;;;;;;;;;;14.52;100.00;98834.27;1740376;81;28030;-83
2022/06/18 02:07:59;;;;;;;;;;;;;;;14.53;100.00;98833.80;1742673;80;24889;-84
2022/06/18 02:10:34;;;;;;;4.30;2.60;;;;;;;14.52;100.00;98826.84;1736734;80;21935;-84
2022/06/18 02:13:04;;;;;;;3.70;1.95;;;;;;;14.53;100.00;98832.48;1743650;80;28098;-84
2022/06/18 02:15:36;;;;;;;6.53;2.75;;;;;;;14.52;100.00;98827.69;1741291;80;28182;-87
2022/06/18 02:18:06;;;;;;;3.13;2.20;;;;;;;14.48;100.00;98821.00;1732432;80;28148;-85
2022/06/18 02:20:36;;;;;;;4.80;2.37;;;;;;;14.46;100.00;98822.91;1736347;80;28150;-88
2022/06/18 02:23:02;;;;;;;3.52;2.17;;;;;;;14.45;100.00;98825.20;1738684;80;28108;-84
2022/06/18 02:25:31;;;;;;;6.10;2.20;;;;;;;14.44;100.00;98823.53;1744877;80;28088;-85
2022/06/18 02:28:13;;;;;;;3.05;2.45;;;;;;;14.44;100.00;98826.63;1739860;80;28047;-85
2022/06/18 02:30:39;;;;;;;3.47;2.25;;;;;;;14.42;100.00;98819.33;1738380;80;28163;-84
2022/06/18 02:33:30;;;;;;;2.75;2.05;;;;;;;14.38;100.00;98825.33;1737177;80;28161;-84
2022/06/18 02:36:00;;;;;;;2.62;2.08;;;;;;;14.37;100.00;98824.96;1716574;80;28096;-85
2022/06/18 02:38:29;;;;;;;3.05;2.20;;;;;;;14.36;100.00;98833.78;1728294;80;28065;-84
2022/06/18 02:40:55;;;;;;;5.45;2.27;;;;;;;14.35;100.00;98829.94;1746914;80;28071;-88
2022/06/18 02:43:44;;;;;;;3.17;2.20;;;;;;;14.34;100.00;98825.66;1742028;80;28148;-85
2022/06/18 02:46:12;;;;;;;5.12;2.40;;;;;;;14.33;100.00;98821.34;1736764;80;28168;-83
2022/06/18 02:48:39;;;;;;;5.92;2.95;;;;;;;14.33;100.00;98823.98;1736017;80;28142;-84
2022/06/18 02:51:12;;;;;;;4.97;2.50;;;;;;;14.27;100.00;98825.30;1709527;81;28134;-84
2022/06/18 02:53:38;;;;;;;4.85;2.30;;;;;;;14.25;100.00;98821.94;1736706;80;28101;-88
2022/06/18 02:56:09;;;;;;;3.22;2.22;;;;;;;14.25;100.00;98825.89;1734149;80;28139;-87
2022/06/18 02:58:46;;;;;;;4.65;2.50;;;;;;;14.24;100.00;98826.36;1713971;82;28044;-88
2022/06/18 03:01:16;;;;;;;4.15;2.27;;;;;;;14.24;100.00;98822.89;1732358;80;28104;-84
2022/06/18 03:03:47;;;;;;;3.58;2.10;;;;;;;14.25;100.00;98820.15;1734878;80;28515;-88
2022/06/18 03:06:16;;;;;;;4.22;2.52;;;;;;;14.27;100.00;98821.83;1734249;80;28044;-88
2022/06/18 03:08:46;;;;;;;3.60;2.42;;;;;;;14.29;100.00;98823.88;1735345;80;28105;-85
2022/06/18 03:13:59;;;;;;;3.22;1.77;;;;;;;14.33;100.00;98827.45;1727164;80;28111;-88
2022/06/18 03:16:26;;;;;;;4.22;2.40;;;;;;;14.38;100.00;98823.17;1736806;80;28123;-88
2022/06/18 03:19:03;;;;;;;3.47;2.05;;;;;;;14.39;100.00;98829.64;1684913;83;28531;-85
2022/06/18 03:21:41;;;;;;;2.27;1.80;;;;;;;14.42;100.00;98832.49;1706744;82;28171;-85
2022/06/18 03:24:09;;;;;;;2.87;2.20;;;;;;;14.44;100.00;98826.16;1733029;80;28061;-87
2022/06/18 03:26:36;;;;;;;2.33;2.08;;;;;;;14.49;100.00;98827.11;1699728;81;28076;-84
2022/06/18 03:29:05;;;;;;;2.50;2.17;;;;;;;14.54;100.00;98828.41;1701192;82;28118;-83
2022/06/18 03:31:50;;;;;;;3.52;1.90;;;;;;;14.63;100.00;98822.88;1706442;82;28007;-85
2022/06/18 03:34:16;;;;;;;4.35;2.27;;;;;;;14.76;100.00;98826.69;1699868;82;28101;-84
2022/06/18 03:36:42;;;;;;;3.45;2.10;;;;;;;14.91;100.00;98826.77;1699254;82;28158;-88
2022/06/18 03:39:10;;;;;;;3.33;2.02;;;;;;;15.05;100.00;98828.62;1700392;82;28072;-84
2022/06/18 03:41:36;;;;;;;4.35;2.00;;;;;;;15.24;100.00;98828.44;1695386;82;28041;-84
2022/06/18 03:44:02;;;;;;;2.37;1.72;;;;;;;15.46;100.00;98829.17;1699394;81;28176;-84
2022/06/18 03:46:29;;;;;;;4.37;1.77;;;;;;;15.73;100.00;98833.13;1699155;82;28153;-84
2022/06/18 03:49:00;;;;;;;2.58;1.50;;;;;;;16.02;100.00;98829.33;1707791;82;28080;-85
2022/06/18 03:51:28;;;;;;;2.47;1.98;;;;;;;16.25;100.00;98830.84;1701407;82;28087;-83
2022/06/18 03:53:55;;;;;;;3.17;2.17;;;;;;;16.52;100.00;98828.91;1668411;83;28092;-88
2022/06/18 03:56:24;;;;;;;4.45;2.12;;;;;;;16.57;100.00;98830.17;1646367;85;28169;-88
2022/06/18 03:58:52;;;;;;;2.98;2.00;;;;;;;16.54;100.00;98828.27;1674297;84;28009;-83
2022/06/18 04:01:28;;;;;;;2.47;1.70;;;;;;;16.59;100.00;98832.21;1672311;83;28121;-85
2022/06/18 04:03:55;;;;;;;2.50;1.70;;;;;;;16.69;100.00;98829.10;1669671;85;28084;-85
2022/06/18 04:06:21;;;;;;;2.22;1.60;;;;;;;16.72;100.00;98826.20;1673510;84;28031;-88
2022/06/18 04:08:47;;;;;;;2.85;2.25;;;;;;;16.61;100.00;98830.77;1669075;84;28062;-84
2022/06/18 04:11:14;;;;;;;4.42;1.90;;;;;;;16.51;100.00;98828.07;1649156;85;28196;-85
2022/06/18 04:13:42;;;;;;;3.90;2.20;;;;;;;16.52;100.00;98832.39;1700888;82;28137;-84
2022/06/18 04:16:10;;;;;;;3.58;2.00;;;;;;;16.63;100.00;98827.52;1702160;82;28090;-84
2022/06/18 04:18:37;;;;;;;3.15;2.35;;;;;;;16.83;100.00;98829.70;1701214;82;28111;-84
2022/06/18 04:21:03;;;;;;;2.20;1.90;;;;;;;17.06;100.00;98826.67;1699651;83;28069;-85
2022/06/18 04:23:30;;;;;;;4.47;1.87;;;;;;;17.29;100.00;98828.53;1670009;83;28110;-84
2022/06/18 04:25:56;;;;;;;2.95;1.70;;;;;;;17.48;100.00;98827.22;1643933;85;28074;-84
2022/06/18 04:28:23;;;;;;;2.12;1.65;;;;;;;17.64;100.00;98827.98;1690549;83;28115;-88
2022/06/18 04:30:49;;;;;;;4.70;2.17;;;;;;;17.78;100.00;98832.02;1682855;83;28114;-84
2022/06/18 04:33:15;;;;;;;4.78;1.90;;;;;;;17.91;100.00;98832.53;1723425;82;28145;-88
2022/06/18 04:35:42;;;;;;;3.27;1.70;;;;;;;18.04;100.00;98837.03;1669333;84;28325;-84
2022/06/18 04:38:11;;;;;;;3.30;1.98;;;;;;;18.09;100.00;98836.11;1670585;83;28081;-84
2022/06/18 04:40:39;;;;;;;2.65;2.05;;;;;;;18.14;100.00;98836.51;1714048;82;28011;-87
2022/06/18 04:43:08;;;;;;;2.77;2.33;;;;;;;18.20;100.00;98830.62;1714984;82;28086;-85
2022/06/18 04:45:35;;;;;;;2.37;1.80;;;;;;;18.27;100.00;98833.54;1717460;82;28140;-88
2022/06/18 04:48:09;;;;;;;2.25;1.80;;;;;;;18.27;100.00;98833.02;1713545;82;28140;-84
2022/06/18 04:50:39;;;;;;;2.77;1.92;;;;;;;18.31;100.00;98837.07;1707351;82;28486;-84
2022/06/18 04:53:08;;;;;;;3.15;1.52;;;;;;;18.35;100.00;98834.47;1691986;83;28189;-84
2022/06/18 04:55:34;;;;;;;3.25;2.08;;;;;;;18.36;100.00;98834.81;1685783;83;28184;-85
2022/06/18 04:58:01;;;;;;;3.77;1.90;;;;;;;18.37;100.00;98832.52;1678883;83;28101;-85
2022/06/18 05:00:27;;;;;;;2.30;1.60;;;;;;;18.39;100.00;98840.30;1679509;83;28086;-84
2022/06/18 05:02:54;;;;;;;4.35;1.60;;;;;;;18.37;100.00;98842.28;1691218;83;28128;-87
2022/06/18 05:05:23;;;;;;;3.15;1.85;;;;;;;18.34;100.00;98841.23;1682553;83;28107;-88
2022/06/18 05:07:50;;;;;;;2.50;1.47;;;;;;;18.35;100.00;98845.06;1721660;81;28093;-84
2022/06/18 05:10:16;;;;;;;6.20;2.02;;;;;;;18.34;100.00;98839.91;1686766;83;28065;-85
2022/06/18 05:12:42;;;;;;;3.37;1.80;;;;;;;18.32;100.00;98839.23;1680786;83;28114;-84
2022/06/18 05:15:18;;;;;;;3.50;1.80;;;;;;;18.31;100.00;98846.34;1677354;83;28095;-84
2022/06/18 05:17:46;;;;;;;4.55;2.15;;;;;;;18.29;100.00;98839.02;1675108;83;28080;-84
2022/06/18 05:20:16;;;;;;;4.50;1.87;;;;;;;18.31;100.00;98841.05;1678205;83;28115;-83
2022/06/18 05:22:42;;;;;;;3.58;1.87;;;;;;;18.32;100.00;98840.56;1724481;81;28085;-88
2022/06/18 05:25:11;;;;;;;2.72;2.02;;;;;;;18.31;100.00;98842.37;1718809;82;28065;-82
2022/06/18 05:27:38;;;;;;;3.80;2.10;;;;;;;18.28;100.00;98839.16;1681337;84;28144;-82
2022/06/18 05:30:07;;;;;;;4.65;1.72;;;;;;;18.31;100.00;98840.20;1723272;81;28086;-83
2022/06/18 05:32:35;;;;;;;6.90;2.27;;;;;;;18.38;100.00;98838.66;1725557;81;28086;-83
2022/06/18 05:35:02;;;;;;;6.53;1.75;;;;;;;18.43;100.00;98841.70;1723397;81;28084;-83
2022/06/18 05:37:31;;;;;;;3.42;1.92;;;;;;;18.48;100.00;98835.95;1691700;83;28093;-84
2022/06/18 05:39:57;;;;;;;3.98;1.80;;;;;;;18.51;100.00;98837.80;1659187;84;28177;-83
2022/06/18 05:42:24;;;;;;;2.83;1.92;;;;;;;18.57;100.00;98841.72;1647163;85;28116;-88
2022/06/18 05:44:51;;;;;;;3.30;1.82;;;;;;;18.61;100.00;98837.30;1674543;84;28144;-85
2022/06/18 05:47:26;;;;;;;2.27;1.82;;;;;;;18.67;100.00;98839.36;1720741;81;27987;-84
2022/06/18 05:49:56;;;;;;;2.98;1.87;;;;;;;18.77;100.00;98835.31;1717057;81;28180;-85
2022/06/18 05:52:23;;;;;;;2.60;1.60;;;;;;;18.82;100.00;98834.89;1720908;81;28109;-85
2022/06/18 05:54:51;;;;;;;5.20;2.05;;;;;;;18.92;100.00;98832.52;1678624;84;28150;-84
2022/06/18 05:57:19;;;;;;;5.45;2.05;;;;;;;19.02;100.00;98828.47;1689663;84;28085;-84
2022/06/18 05:59:47;;;;;;;3.30;1.65;;;;;;;19.10;100.00;98827.20;1645787;85;28087;-84
2022/06/18 06:02:21;;;;;;;6.30;2.20;;;;;;;19.13;100.00;98824.27;1654904;84;28106;-88
2022/06/18 06:04:48;;;;;;;3.27;1.55;;;;;;;19.15;100.00;98830.23;1685779;83;28073;-88
2022/06/18 06:07:16;;;;;;;2.95;1.87;;;;;;;19.20;100.00;98833.30;1681701;83;28096;-87
2022/06/18 06:12:27;;;;;;;3.02;1.52;;;;;;;19.26;100.00;98826.03;1673666;84;28156;-84
2022/06/18 06:14:53;;;;;;;4.65;1.55;;;;;;;19.33;100.00;98829.75;1674010;83;28095;-85
2022/06/18 06:17:24;;;;;;;5.20;1.50;;;;;;;19.36;100.00;98829.46;1685467;84;28044;-84
2022/06/18 06:19:51;;;;;;;3.35;1.60;;;;;;;19.40;100.00;98827.33;1686621;83;28099;-88
2022/06/18 06:22:17;;;;;;;3.47;1.65;;;;;;;19.48;100.00;98823.42;1681517;83;28001;-88
2022/06/18 06:24:43;;;;;;;4.03;1.50;;;;;;;19.55;100.00;98826.66;1683530;82;28112;-88
2022/06/18 06:27:10;;;;;;;2.83;1.65;;;;;;;19.60;100.00;98831.00;1661118;84;28131;-85
2022/06/18 06:29:37;;;;;;;2.85;1.60;;;;;;;19.67;100.00;98829.89;1735518;80;28058;-85
2022/06/18 06:32:04;;;;;;;2.50;1.30;;;;;;;19.75;100.00;98825.95;1736098;80;28070;-89
2022/06/18 06:34:32;;;;;;;1.77;1.10;;;;;;;19.83;100.00;98822.53;1731733;80;28085;-85
2022/06/18 06:37:04;;;;;;;2.65;1.20;;;;;;;19.92;100.00;98821.59;1734853;81;28100;-85
2022/06/18 06:39:30;;;;;;;1.98;1.40;;;;;;;19.94;100.00;98822.28;1738136;80;28054;-85
2022/06/18 06:41:56;;;;;;;3.75;1.30;;;;;;;19.97;100.00;98823.28;1735476;80;28080;-87
2022/06/18 06:44:22;;;;;;;2.87;1.30;;;;;;;20.01;100.00;98820.67;1736715;80;28185;-85
2022/06/18 06:46:48;;;;;;;1.12;1.02;;;;;;;20.05;100.00;98814.88;1733113;80;28116;-83
2022/06/18 06:49:14;;;;;;;2.90;1.37;;;;;;;20.10;100.00;98815.73;1734742;80;28061;-87
2022/06/18 06:51:47;;;;;;;1.10;1.00;;;;;;;20.15;100.00;98817.41;1739693;80;41988;-83
2022/06/18 06:54:14;;;;;;;1.67;1.10;;;;;;;20.18;100.00;98812.29;1732853;80;28142;-84
2022/06/18 06:59:27;;;;;;;1.92;1.20;;;;;;;20.31;100.00;98818.85;1735444;80;28158;-83
2022/06/18 07:01:54;;;;;;;2.12;1.30;;;;;;;20.36;100.00;98817.04;1738448;80;28433;-83
2022/06/18 07:04:21;;;;;;;2.25;1.20;;;;;;;20.41;100.00;98818.23;1739184;81;28068;-85
2022/06/18 07:06:47;;;;;;;2.90;1.37;;;;;;;20.48;100.00;98810.45;1734449;80;28156;-84
2022/06/18 07:09:19;;;;;;;2.75;1.12;;;;;;;20.58;100.00;98811.15;1742508;80;28160;-85
2022/06/18 07:11:45;;;;;;;1.25;1.00;;;;;;;20.67;100.00;98808.03;1737654;80;28148;-84
2022/06/18 07:14:11;;;;;;;1.00;0.90;;;;;;;20.76;100.00;98802.57;1737708;80;28024;-82
2022/06/18 07:16:52;;;;;;;2.75;0.98;;;;;;;20.87;100.00;98802.76;1739698;82;28053;-85
2022/06/18 07:19:19;;;;;;;1.72;1.05;;;;;;;20.96;100.00;98803.59;1734364;81;28183;-84
2022/06/18 07:21:52;;;;;;;1.50;0.90;;;;;;;21.03;100.00;98812.10;1736224;80;28097;-83
2022/06/18 07:24:19;;;;;;;2.92;1.52;;;;;;;21.10;100.00;98812.28;1738932;80;28073;-85
2022/06/18 07:26:46;;;;;;;5.15;1.27;;;;;;;21.16;100.00;98807.17;1733003;80;28230;-85
2022/06/18 07:29:13;;;;;;;3.00;1.10;;;;;;;21.24;100.00;98812.48;1690100;83;28098;-88
2022/06/18 07:31:40;;;;;;;3.67;1.07;;;;;;;21.32;100.00;98808.17;1735788;80;28199;-88
2022/06/18 07:34:07;;;;;;;2.25;1.12;;;;;;;21.38;100.00;98812.84;1673562;84;28096;-84
2022/06/18 07:36:34;;;;;;;1.80;1.00;;;;;;;21.45;100.00;98813.81;1725612;80;28146;-88
2022/06/18 07:39:02;;;;;;;2.33;1.00;;;;;;;21.54;99.61;98815.50;1735045;80;28060;-87
2022/06/18 07:41:31;;;;;;;4.35;1.40;;;;;;;21.61;99.30;98819.14;1740520;80;28110;-84
2022/06/18 07:43:58;;;;;;;2.45;0.90;;;;;;;21.68;98.87;98818.81;1735952;80;28151;-88
2022/06/18 07:46:25;;;;;;;2.90;1.05;;;;;;;21.75;98.33;98821.14;1672996;83;28133;-88
2022/06/18 07:48:53;;;;;;;3.58;0.90;;;;;;;21.82;97.90;98815.45;1731681;80;28239;-88
2022/06/18 07:51:20;;;;;;;1.40;0.80;;;;;;;21.90;97.57;98819.45;1733021;80;28087;-86
2022/06/18 07:53:46;;;;;;;1.25;1.10;;;;;;;21.96;96.75;98814.81;1736991;80;28096;-88
2022/06/18 07:56:16;;;;;;;1.57;1.00;;;;;;;22.05;96.21;98818.27;1670744;83;28055;-88
2022/06/18 07:58:42;;;;;;;3.67;1.02;;;;;;;22.15;95.79;98816.77;1737098;81;28102;-84
2022/06/18 08:01:09;;;;;;;1.77;1.10;;;;;;;22.24;95.29;98823.73;1735968;80;27986;-84
2022/06/18 08:03:35;;;;;;;1.98;1.12;;;;;;;22.33;94.87;98821.36;1735221;80;28128;-84
2022/06/18 08:06:02;;;;;;;1.50;1.00;;;;;;;22.41;94.10;98822.68;1736567;80;28096;-88
2022/06/18 08:08:28;;;;;;;3.72;0.82;;;;;;;22.46;93.17;98824.33;1737230;80;28177;-88
2022/06/18 08:10:55;;;;;;;2.45;1.00;;;;;;;22.53;92.38;98817.27;1738981;80;28080;-85
2022/06/18 08:13:21;;;;;;;1.75;1.05;;;;;;;22.59;91.82;98814.41;1740479;80;28162;-87
2022/06/18 08:15:47;;;;;;;1.85;1.17;;;;;;;22.67;91.39;98816.55;1741725;80;28175;-85
2022/06/18 08:18:14;;;;;;;1.05;0.80;;;;;;;22.74;90.89;98813.56;1737961;80;28160;-84
2022/06/18 08:20:42;;;;;;;2.02;1.35;;;;;;;22.83;90.47;98814.33;1742690;80;28166;-85
2022/06/18 08:23:09;;;;;;;1.20;1.02;;;;;;;22.86;89.40;98798.79;1735919;80;28083;-85
2022/06/18 08:25:38;;;;;;;2.30;1.00;;;;;;;22.89;88.02;98792.28;1737797;80;28060;-85
2022/06/18 08:28:07;;;;;;;2.20;0.90;;;;;;;22.93;86.90;98792.25;1726807;80;28083;-85
2022/06/18 08:30:36;;;;;;;1.50;0.97;;;;;;;22.97;86.23;98780.20;1704395;82;28177;-88
2022/06/18 08:33:03;;;;;;;1.27;0.90;;;;;;;23.00;85.08;98778.53;1704022;82;28139;-88
2022/06/18 08:35:31;;;;;;;4.22;1.02;;;;;;;23.06;84.05;98783.66;1729466;81;28116;-88
2022/06/18 08:37:57;;;;;;;3.45;0.93;;;;;;;23.07;83.18;98776.82;1726473;81;28172;-88
2022/06/18 08:40:37;;;;;;;1.52;0.90;;;;;;;23.10;81.85;98772.45;1726156;81;28093;-88
2022/06/18 08:43:22;;;;;;;0.82;0.82;;;;;;;23.17;81.05;98764.55;1703899;82;28179;-88
2022/06/18 08:46:09;;;;;;;0.80;0.80;;;;;;;23.24;80.31;98752.96;1719032;82;28079;-89
2022/06/18 08:49:07;;;;;;;1.55;1.00;;;;;;;23.33;79.70;98753.73;1720963;82;28161;-85
2022/06/18 08:51:57;;;;;;;1.00;0.70;;;;;;;23.42;79.14;98751.31;1723955;81;28066;-85
2022/06/18 08:54:30;;;;;;;1.52;0.90;;;;;;;23.48;77.71;98744.45;1729855;81;28168;-85
2022/06/18 08:57:11;;;;;;;1.10;0.90;;;;;;;23.57;77.28;98734.83;1668982;85;28077;-84
2022/06/18 09:00:12;;;;;;;0.70;0.70;;;;;;;23.64;77.32;98734.44;1639594;85;28040;-85
2022/06/18 09:02:42;;;;;;;0.88;0.80;;;;;;;23.71;76.80;98726.52;1649044;85;28092;-88
2022/06/18 09:05:28;;;;;;;0.90;0.70;;;;;;;23.82;76.27;98730.58;1642904;85;28167;-87
2022/06/18 09:08:23;;;;;;;0.78;0.78;;;;;;;23.92;75.98;98732.47;1646649;85;28119;-87
2022/06/18 09:10:58;;;;;;;1.30;0.75;;;;;;;24.03;75.61;98732.00;1678099;83;28195;-85
2022/06/18 09:13:43;;;;;;;1.45;0.88;;;;;;;24.16;75.26;98723.66;1688709;82;28132;-86
2022/06/18 09:16:18;;;;;;;1.67;0.82;;;;;;;24.25;74.69;98720.90;1687072;83;28139;-86
2022/06/18 09:18:57;;;;;;;1.00;0.60;;;;;;;24.34;73.24;98720.59;1704906;82;28127;-84
2022/06/18 09:21:29;;;;;;;2.30;0.90;;;;;;;24.44;72.56;98717.62;1731280;81;28191;-84
2022/06/18 09:23:59;;;;;;;1.47;0.68;;;;;;;24.51;71.91;98716.69;1687570;82;28136;-84
2022/06/18 09:26:29;;;;;;;1.67;1.05;;;;;;;24.53;71.36;98712.50;1691685;82;28088;-84
2022/06/18 09:29:02;;;;;;;2.27;0.80;;;;;;;24.62;70.97;98711.86;1689560;83;28203;-84
2022/06/18 09:31:34;;;;;;;1.05;0.78;;;;;;;24.73;70.48;98709.52;1690767;83;28210;-85
2022/06/18 09:34:07;;;;;;;2.35;1.20;;;;;;;24.82;69.99;98698.98;1605978;86;28062;-85
2022/06/18 09:36:39;;;;;;;2.60;0.93;;;;;;;24.91;69.61;98696.55;1658553;84;28162;-85
2022/06/18 09:39:11;;;;;;;1.25;1.00;;;;;;;25.01;69.32;98705.59;1660202;84;28126;-85
2022/06/18 09:42:04;;;;;;;5.50;1.27;;;;;;;25.14;69.04;98707.58;1727555;81;28149;-85
2022/06/18 09:44:49;;;;;;;3.00;1.12;;;;;;;25.20;68.16;98707.60;1729057;82;28134;-86
2022/06/18 09:47:28;;;;;;;1.55;0.82;;;;;;;25.24;67.22;98708.89;1724567;81;28347;-86
2022/06/18 09:49:55;;;;;;;2.17;1.02;;;;;;;25.30;66.26;98710.80;1683574;83;28084;-88
2022/06/18 09:52:36;;;;;;;1.00;0.82;;;;;;;25.41;65.81;98712.13;1728234;81;28096;-89
2022/06/18 09:55:12;;;;;;;1.25;0.90;;;;;;;25.53;65.57;98713.76;1723875;81;28097;-89
2022/06/18 09:57:42;;;;;;;2.00;1.02;;;;;;;25.68;65.29;98709.14;1721137;81;28141;-88
2022/06/18 10:00:14;;;;;;;1.22;0.98;;;;;;;25.79;64.83;98701.89;1725128;81;28093;-88
2022/06/18 10:02:47;;;;;;;1.92;1.00;;;;;;;25.87;64.49;98704.40;1727887;81;28102;-85
2022/06/18 10:08:08;;;;;;;2.12;0.68;;;;;;;25.95;63.56;98705.59;1724785;81;28095;-85
2022/06/18 10:10:36;;;;;;;1.55;0.93;;;;;;;26.03;62.90;98701.90;1726628;81;28141;-86
2022/06/18 10:13:07;;;;;;;1.50;0.90;;;;;;;26.09;62.51;98705.13;1721982;81;28114;-86
2022/06/18 10:15:35;;;;;;;2.47;0.80;;;;;;;26.13;62.52;98706.41;1723349;81;28095;-86
2022/06/18 10:18:24;;;;;;;0.75;0.70;;;;;;;26.13;62.36;98708.55;1734410;81;28207;-86
2022/06/18 10:21:14;;;;;;;2.17;1.10;;;;;;;26.11;62.21;98703.09;1728798;81;28191;-86
2022/06/18 10:23:59;;;;;;;1.12;0.80;;;;;;;26.10;61.61;98700.91;1730642;81;28092;-88
2022/06/18 10:26:38;;;;;;;0.98;0.80;;;;;;;26.11;60.76;98696.38;1731483;81;28169;-88
2022/06/18 10:29:32;;;;;;;1.95;0.80;;;;;;;26.08;59.78;98698.10;1737200;80;28139;-88
2022/06/18 10:32:17;;;;;;;2.40;1.07;;;;;;;26.10;59.29;98695.55;1737833;80;28101;-88
2022/06/18 10:34:59;;;;;;;1.00;0.80;;;;;;;26.14;58.63;98696.80;1731887;80;28148;-88
2022/06/18 10:37:39;;;;;;;1.45;0.78;;;;;;;26.20;58.23;98691.98;1737609;80;28098;-88
2022/06/18 10:40:12;;;;;;;2.67;1.12;;;;;;;26.16;57.56;98683.19;1739857;80;28178;-86
2022/06/18 10:43:04;;;;;;;2.72;1.00;;;;;;;26.03;56.81;98681.27;1681508;83;28127;-86
2022/06/18 10:45:49;;;;;;;1.55;0.75;;;;;;;26.00;56.23;98675.48;1739221;80;28138;-87
2022/06/18 10:48:22;;;;;;;0.80;0.70;;;;;;;26.05;55.91;98669.01;1711565;80;28174;-87
2022/06/18 10:50:52;;;;;;;1.25;0.80;;;;;;;26.14;56.20;98663.27;1738638;80;28133;-86
2022/06/18 10:53:22;;;;;;;1.35;0.80;;;;;;;26.22;56.45;98657.77;1738207;80;28069;-86
2022/06/18 10:56:03;;;;;;;1.87;0.80;;;;;;;26.21;55.24;98660.09;1747097;80;28157;-87
2022/06/18 10:58:29;;;;;;;;;;;;;;;26.18;54.73;98658.34;1749951;80;28201;-87
2022/06/18 11:01:08;;;;;;;1.40;0.70;;;;;;;26.20;54.39;98660.29;1747414;80;22058;-86
2022/06/18 11:03:36;;;;;;;0.85;0.70;;;;;;;26.31;54.35;98656.23;1742873;80;28173;-86
2022/06/18 11:06:05;;;;;;;0.70;0.68;;;;;;;26.35;54.02;98648.11;1743603;80;28142;-86
2022/06/18 11:08:35;;;;;;;1.65;0.70;;;;;;;26.45;54.09;98645.86;1742804;80;28092;-86
2022/06/18 11:11:04;;;;;;;1.05;0.60;;;;;;;26.52;53.96;98644.82;1737346;80;28238;-89
2022/06/18 11:13:40;;;;;;;0.75;0.60;;;;;;;26.57;53.72;98634.81;1741221;80;28148;-85
2022/06/18 11:16:25;;;;;;;1.37;0.62;;;;;;;26.63;53.46;98634.00;1743739;80;28139;-85
2022/06/18 11:18:55;;;;;;;0.95;0.82;;;;;;;26.70;53.29;98629.47;1742594;80;28182;-85
2022/06/18 11:21:25;;;;;;;2.37;0.93;;;;;;;26.74;53.00;98628.02;1743508;80;28059;-86
2022/06/18 11:24:04;;;;;;;2.40;0.80;;;;;;;26.77;53.05;98623.59;1741502;80;28160;-84
2022/06/18 11:26:30;;;;;;;1.30;0.68;;;;;;;26.83;53.04;98613.89;1746027;80;28241;-83
2022/06/18 11:29:01;;;;;;;1.30;0.90;;;;;;;26.87;52.89;98613.30;1729269;81;28094;-87
2022/06/18 11:31:31;;;;;;;1.32;0.50;;;;;;;26.91;52.59;98610.50;1681916;84;28138;-87
2022/06/18 11:34:01;;;;;;;1.80;0.72;;;;;;;26.92;52.20;98612.16;1678442;83;28148;-87
2022/06/18 11:36:37;;;;;;;1.27;0.78;;;;;;;26.93;51.73;98611.13;1680750;83;28124;-86
2022/06/18 11:39:04;;;;;;;1.12;0.75;;;;;;;26.95;51.47;98606.36;1685820;83;28095;-87
2022/06/18 11:41:38;;;;;;;2.05;0.82;;;;;;;26.97;51.32;98601.62;1686412;84;28146;-87
2022/06/18 11:44:12;;;;;;;1.27;0.80;;;;;;;27.01;51.16;98606.05;1680730;83;28167;-83
2022/06/18 11:47:01;;;;;;;1.15;0.62;;;;;;;27.05;51.01;98605.45;1671294;83;28159;-83
2022/06/18 11:49:34;;;;;;;1.32;0.90;;;;;;;27.14;50.98;98603.36;1650677;84;28154;-84
2022/06/18 11:52:19;;;;;;;1.17;0.70;;;;;;;27.16;50.74;98605.34;1653219;85;28194;-84
2022/06/18 11:55:12;;;;;;;1.07;0.62;;;;;;;27.20;50.80;98603.05;1678700;83;28144;-83
2022/06/18 11:58:00;;;;;;;1.02;0.68;;;;;;;27.23;50.88;98603.45;1685422;83;28136;-84
2022/06/18 12:00:30;;;;;;;0.80;0.80;;;;;;;27.29;51.12;98593.72;1685694;83;28088;-84